sensor_id;sensor_type;location;lat;lon;timestamp;P1;durP1;ratioP1;P2;durP2;ratioP2
4078;SDS011;2054;47.858;11.156;2022-11-14T03:45:40;7.60;;;4.53;;
4078;SDS011;2054;47.858;11.156;2022-11-14T03:48:07;7.13;;;4.65;;
4078;SDS011;2054;47.858;11.156;2022-11-14T03:50:34;8.18;;;4.80;;
4078;SDS011;2054;47.858;11.156;2022-11-14T03:53:02;6.53;;;4.50;;
4078;SDS011;2054;47.858;11.156;2022-11-14T03:55:29;7.88;;;4.53;;
4078;SDS011;2054;47.858;11.156;2022-11-14T03:57:56;7.05;;;4.60;;
4078;SDS011;2054;47.858;11.156;2022-11-14T04:00:23;7.18;;;4.85;;
4078;SDS011;2054;47.858;11.156;2022-11-14T04:02:53;8.63;;;4.60;;
4078;SDS011;2054;47.858;11.156;2022-11-14T04:05:21;7.13;;;4.68;;
4078;SDS011;2054;47.858;11.156;2022-11-14T04:07:48;6.32;;;4.65;;
4078;SDS011;2054;47.858;11.156;2022-11-14T04:10:15;7.68;;;4.75;;
4078;SDS011;2054;47.858;11.156;2022-11-14T04:12:45;6.60;;;4.53;;
4078;SDS011;2054;47.858;11.156;2022-11-14T04:15:13;7.45;;;4.90;;
4078;SDS011;2054;47.858;11.156;2022-11-14T04:17:41;5.45;;;4.63;;
4078;SDS011;2054;47.858;11.156;2022-11-14T04:20:10;7.93;;;4.90;;
4078;SDS011;2054;47.858;11.156;2022-11-14T04:22:38;5.97;;;4.32;;
4078;SDS011;2054;47.858;11.156;2022-11-14T04:25:06;6.38;;;4.43;;
4078;SDS011;2054;47.858;11.156;2022-11-14T04:27:33;6.82;;;4.90;;
4078;SDS011;2054;47.858;11.156;2022-11-14T04:30:01;7.70;;;4.78;;
4078;SDS011;2054;47.858;11.156;2022-11-14T04:32:28;6.93;;;4.70;;
4078;SDS011;2054;47.858;11.156;2022-11-14T04:34:55;5.60;;;4.22;;
4078;SDS011;2054;47.858;11.156;2022-11-14T04:37:24;6.05;;;4.43;;
4078;SDS011;2054;47.858;11.156;2022-11-14T04:39:51;5.88;;;4.32;;
4078;SDS011;2054;47.858;11.156;2022-11-14T04:42:22;4.72;;;4.13;;
4078;SDS011;2054;47.858;11.156;2022-11-14T04:44:50;4.97;;;3.50;;
4078;SDS011;2054;47.858;11.156;2022-11-14T04:47:17;5.28;;;3.63;;
4078;SDS011;2054;47.858;11.156;2022-11-14T04:49:44;5.68;;;3.92;;
4078;SDS011;2054;47.858;11.156;2022-11-14T04:52:11;5.45;;;4.03;;
4078;SDS011;2054;47.858;11.156;2022-11-14T04:54:40;5.68;;;3.97;;
4078;SDS011;2054;47.858;11.156;2022-11-14T04:57:07;4.45;;;3.45;;
4078;SDS011;2054;47.858;11.156;2022-11-14T04:59:34;4.43;;;3.33;;
4078;SDS011;2054;47.858;11.156;2022-11-14T05:02:02;4.82;;;3.70;;
4078;SDS011;2054;47.858;11.156;2022-11-14T05:04:29;5.68;;;3.85;;
4078;SDS011;2054;47.858;11.156;2022-11-14T05:06:56;4.55;;;3.35;;
4078;SDS011;2054;47.858;11.156;2022-11-14T05:09:23;4.03;;;3.53;;
4078;SDS011;2054;47.858;11.156;2022-11-14T05:11:52;5.60;;;3.20;;
4078;SDS011;2054;47.858;11.156;2022-11-14T05:14:19;4.05;;;3.08;;
4078;SDS011;2054;47.858;11.156;2022-11-14T05:16:46;3.35;;;2.83;;
4078;SDS011;2054;47.858;11.156;2022-11-14T05:19:14;3.75;;;3.20;;
4078;SDS011;2054;47.858;11.156;2022-11-14T05:21:41;3.25;;;2.92;;
4078;SDS011;2054;47.858;11.156;2022-11-14T05:24:08;4.43;;;3.25;;
4078;SDS011;2054;47.858;11.156;2022-11-14T05:26:35;4.80;;;3.08;;
4078;SDS011;2054;47.858;11.156;2022-11-14T05:29:05;3.80;;;2.92;;
4078;SDS011;2054;47.858;11.156;2022-11-14T05:31:32;4.35;;;3.00;;
4078;SDS011;2054;47.858;11.156;2022-11-14T05:33:59;5.95;;;3.92;;
4078;SDS011;2054;47.858;11.156;2022-11-14T05:36:26;5.75;;;3.83;;
4078;SDS011;2054;47.858;11.156;2022-11-14T05:38:53;5.18;;;3.92;;
4078;SDS011;2054;47.858;11.156;2022-11-14T05:41:21;4.32;;;3.63;;
4078;SDS011;2054;47.858;11.156;2022-11-14T05:43:48;4.57;;;3.70;;
4078;SDS011;2054;47.858;11.156;2022-11-14T05:46:16;4.28;;;3.72;;
4078;SDS011;2054;47.858;11.156;2022-11-14T05:48:43;4.90;;;3.92;;
4078;SDS011;2054;47.858;11.156;2022-11-14T05:51:11;5.13;;;3.97;;
4078;SDS011;2054;47.858;11.156;2022-11-14T05:53:39;5.20;;;3.95;;
4078;SDS011;2054;47.858;11.156;2022-11-14T05:56:08;4.75;;;3.80;;
4078;SDS011;2054;47.858;11.156;2022-11-14T05:58:35;5.78;;;3.10;;
4078;SDS011;2054;47.858;11.156;2022-11-14T06:01:03;4.65;;;3.35;;
4078;SDS011;2054;47.858;11.156;2022-11-14T06:03:32;4.22;;;3.03;;
4078;SDS011;2054;47.858;11.156;2022-11-14T06:06:00;3.70;;;3.15;;
4078;SDS011;2054;47.858;11.156;2022-11-14T06:08:27;3.60;;;3.03;;
4078;SDS011;2054;47.858;11.156;2022-11-14T06:10:54;3.92;;;3.08;;
4078;SDS011;2054;47.858;11.156;2022-11-14T06:13:21;3.90;;;2.97;;
4078;SDS011;2054;47.858;11.156;2022-11-14T06:15:49;3.65;;;2.92;;
4078;SDS011;2054;47.858;11.156;2022-11-14T06:18:16;4.05;;;2.55;;
4078;SDS011;2054;47.858;11.156;2022-11-14T06:20:45;3.55;;;3.10;;
4078;SDS011;2054;47.858;11.156;2022-11-14T06:23:12;4.25;;;3.30;;
4078;SDS011;2054;47.858;11.156;2022-11-14T06:25:39;3.45;;;3.08;;
4078;SDS011;2054;47.858;11.156;2022-11-14T06:28:06;6.43;;;4.03;;
4078;SDS011;2054;47.858;11.156;2022-11-14T06:30:33;9.30;;;5.38;;
4078;SDS011;2054;47.858;11.156;2022-11-14T06:33:02;9.82;;;5.25;;
4078;SDS011;2054;47.858;11.156;2022-11-14T06:35:29;6.88;;;4.60;;
4078;SDS011;2054;47.858;11.156;2022-11-14T06:37:59;8.15;;;5.90;;
4078;SDS011;2054;47.858;11.156;2022-11-14T06:40:26;8.05;;;4.47;;
4078;SDS011;2054;47.858;11.156;2022-11-14T06:42:54;9.95;;;5.35;;
4078;SDS011;2054;47.858;11.156;2022-11-14T06:45:21;8.10;;;4.55;;
4078;SDS011;2054;47.858;11.156;2022-11-14T06:47:48;8.80;;;4.93;;
4078;SDS011;2054;47.858;11.156;2022-11-14T06:50:15;9.60;;;5.30;;
4078;SDS011;2054;47.858;11.156;2022-11-14T06:52:43;7.32;;;4.68;;
4078;SDS011;2054;47.858;11.156;2022-11-14T06:55:11;7.85;;;4.95;;
4078;SDS011;2054;47.858;11.156;2022-11-14T06:57:38;10.80;;;5.32;;
4078;SDS011;2054;47.858;11.156;2022-11-14T07:00:06;8.68;;;4.93;;
4078;SDS011;2054;47.858;11.156;2022-11-14T07:02:34;8.88;;;5.40;;
4078;SDS011;2054;47.858;11.156;2022-11-14T07:05:01;7.35;;;4.93;;
4078;SDS011;2054;47.858;11.156;2022-11-14T07:07:28;7.05;;;5.13;;
4078;SDS011;2054;47.858;11.156;2022-11-14T07:09:55;7.38;;;5.00;;
4078;SDS011;2054;47.858;11.156;2022-11-14T07:12:24;7.88;;;3.88;;
4078;SDS011;2054;47.858;11.156;2022-11-14T07:14:52;5.68;;;3.58;;
4078;SDS011;2054;47.858;11.156;2022-11-14T07:17:19;5.88;;;3.78;;
4078;SDS011;2054;47.858;11.156;2022-11-14T07:19:47;4.90;;;3.45;;
4078;SDS011;2054;47.858;11.156;2022-11-14T07:22:14;7.38;;;5.30;;
4078;SDS011;2054;47.858;11.156;2022-11-14T07:24:41;6.57;;;4.15;;
4078;SDS011;2054;47.858;11.156;2022-11-14T07:27:09;8.20;;;5.13;;
4078;SDS011;2054;47.858;11.156;2022-11-14T07:29:37;7.43;;;4.80;;
4078;SDS011;2054;47.858;11.156;2022-11-14T07:32:04;6.05;;;4.43;;
4078;SDS011;2054;47.858;11.156;2022-11-14T07:34:32;5.15;;;4.05;;
4078;SDS011;2054;47.858;11.156;2022-11-14T07:36:59;5.55;;;3.90;;
4078;SDS011;2054;47.858;11.156;2022-11-14T07:39:26;4.78;;;3.33;;
4078;SDS011;2054;47.858;11.156;2022-11-14T07:41:53;3.17;;;2.67;;
4078;SDS011;2054;47.858;11.156;2022-11-14T07:44:20;4.78;;;2.97;;
4078;SDS011;2054;47.858;11.156;2022-11-14T07:46:52;3.65;;;2.83;;
4078;SDS011;2054;47.858;11.156;2022-11-14T07:49:19;3.17;;;2.88;;
4078;SDS011;2054;47.858;11.156;2022-11-14T07:51:47;4.00;;;3.05;;
4078;SDS011;2054;47.858;11.156;2022-11-14T07:54:14;4.78;;;3.45;;
4078;SDS011;2054;47.858;11.156;2022-11-14T07:56:41;4.10;;;3.38;;
4078;SDS011;2054;47.858;11.156;2022-11-14T07:59:08;5.35;;;3.55;;
4078;SDS011;2054;47.858;11.156;2022-11-14T08:01:35;6.47;;;3.45;;
4078;SDS011;2054;47.858;11.156;2022-11-14T08:04:07;3.97;;;3.20;;
4078;SDS011;2054;47.858;11.156;2022-11-14T08:06:34;4.30;;;3.40;;
4078;SDS011;2054;47.858;11.156;2022-11-14T08:09:02;5.90;;;3.53;;
4078;SDS011;2054;47.858;11.156;2022-11-14T08:11:29;6.15;;;4.15;;
4078;SDS011;2054;47.858;11.156;2022-11-14T08:14:15;6.22;;;3.95;;
4078;SDS011;2054;47.858;11.156;2022-11-14T08:16:43;5.00;;;3.78;;
4078;SDS011;2054;47.858;11.156;2022-11-14T08:19:11;6.93;;;4.53;;
4078;SDS011;2054;47.858;11.156;2022-11-14T08:21:40;6.82;;;4.13;;
4078;SDS011;2054;47.858;11.156;2022-11-14T08:24:08;7.60;;;4.60;;
4078;SDS011;2054;47.858;11.156;2022-11-14T08:26:35;5.55;;;4.10;;
4078;SDS011;2054;47.858;11.156;2022-11-14T08:29:03;4.70;;;4.10;;
4078;SDS011;2054;47.858;11.156;2022-11-14T08:31:30;6.32;;;4.30;;
4078;SDS011;2054;47.858;11.156;2022-11-14T08:33:58;7.63;;;5.10;;
4078;SDS011;2054;47.858;11.156;2022-11-14T08:36:26;6.18;;;4.57;;
4078;SDS011;2054;47.858;11.156;2022-11-14T08:38:54;9.13;;;4.50;;
4078;SDS011;2054;47.858;11.156;2022-11-14T08:41:21;5.75;;;4.15;;
4078;SDS011;2054;47.858;11.156;2022-11-14T08:43:48;5.68;;;4.70;;
4078;SDS011;2054;47.858;11.156;2022-11-14T08:46:15;8.50;;;4.28;;
4078;SDS011;2054;47.858;11.156;2022-11-14T08:48:43;5.63;;;3.95;;
4078;SDS011;2054;47.858;11.156;2022-11-14T08:51:10;5.35;;;4.13;;
4078;SDS011;2054;47.858;11.156;2022-11-14T08:53:39;4.65;;;4.03;;
4078;SDS011;2054;47.858;11.156;2022-11-14T08:56:07;4.88;;;4.00;;
4078;SDS011;2054;47.858;11.156;2022-11-14T08:58:34;4.57;;;3.85;;
4078;SDS011;2054;47.858;11.156;2022-11-14T09:01:03;4.95;;;3.97;;
4078;SDS011;2054;47.858;11.156;2022-11-14T09:03:31;5.32;;;3.88;;
4078;SDS011;2054;47.858;11.156;2022-11-14T09:05:58;4.32;;;3.78;;
4078;SDS011;2054;47.858;11.156;2022-11-14T09:08:26;4.40;;;3.97;;
4078;SDS011;2054;47.858;11.156;2022-11-14T09:10:54;5.22;;;4.38;;
4078;SDS011;2054;47.858;11.156;2022-11-14T09:13:25;4.40;;;3.55;;
4078;SDS011;2054;47.858;11.156;2022-11-14T09:15:52;4.10;;;3.38;;
4078;SDS011;2054;47.858;11.156;2022-11-14T09:18:20;3.85;;;3.45;;
4078;SDS011;2054;47.858;11.156;2022-11-14T09:20:47;3.50;;;3.20;;
4078;SDS011;2054;47.858;11.156;2022-11-14T09:23:14;5.10;;;3.58;;
4078;SDS011;2054;47.858;11.156;2022-11-14T09:25:42;3.67;;;3.22;;
4078;SDS011;2054;47.858;11.156;2022-11-14T09:28:10;4.95;;;2.97;;
4078;SDS011;2054;47.858;11.156;2022-11-14T09:30:37;3.80;;;2.75;;
4078;SDS011;2054;47.858;11.156;2022-11-14T09:33:06;5.20;;;2.92;;
4078;SDS011;2054;47.858;11.156;2022-11-14T09:35:33;3.72;;;3.13;;
4078;SDS011;2054;47.858;11.156;2022-11-14T09:38:02;3.80;;;3.40;;
4078;SDS011;2054;47.858;11.156;2022-11-14T09:40:30;3.75;;;3.10;;
4078;SDS011;2054;47.858;11.156;2022-11-14T09:43:01;6.32;;;3.60;;
4078;SDS011;2054;47.858;11.156;2022-11-14T09:45:33;4.97;;;3.50;;
4078;SDS011;2054;47.858;11.156;2022-11-14T09:48:03;3.92;;;3.00;;
4078;SDS011;2054;47.858;11.156;2022-11-14T09:50:33;4.50;;;3.00;;
4078;SDS011;2054;47.858;11.156;2022-11-14T09:53:04;4.60;;;3.25;;
4078;SDS011;2054;47.858;11.156;2022-11-14T09:55:32;3.70;;;3.30;;
4078;SDS011;2054;47.858;11.156;2022-11-14T09:58:00;3.35;;;3.05;;
4078;SDS011;2054;47.858;11.156;2022-11-14T10:00:28;4.18;;;3.55;;
4078;SDS011;2054;47.858;11.156;2022-11-14T10:03:06;4.05;;;3.10;;
4078;SDS011;2054;47.858;11.156;2022-11-14T10:05:41;4.25;;;3.22;;
4078;SDS011;2054;47.858;11.156;2022-11-14T10:08:18;3.58;;;2.92;;
4078;SDS011;2054;47.858;11.156;2022-11-14T10:10:49;5.47;;;3.55;;
4078;SDS011;2054;47.858;11.156;2022-11-14T10:13:24;4.70;;;3.30;;
4078;SDS011;2054;47.858;11.156;2022-11-14T10:15:53;3.75;;;3.40;;
4078;SDS011;2054;47.858;11.156;2022-11-14T10:18:30;7.53;;;3.92;;
4078;SDS011;2054;47.858;11.156;2022-11-14T10:21:03;4.22;;;3.20;;
4078;SDS011;2054;47.858;11.156;2022-11-14T10:23:36;4.20;;;2.70;;
4078;SDS011;2054;47.858;11.156;2022-11-14T10:26:08;3.95;;;3.50;;
4078;SDS011;2054;47.858;11.156;2022-11-14T10:28:52;4.40;;;3.67;;
4078;SDS011;2054;47.858;11.156;2022-11-14T10:31:25;4.10;;;3.55;;
4078;SDS011;2054;47.858;11.156;2022-11-14T10:34:00;3.05;;;2.75;;
4078;SDS011;2054;47.858;11.156;2022-11-14T10:36:39;3.30;;;2.92;;
4078;SDS011;2054;47.858;11.156;2022-11-14T10:39:10;3.47;;;3.17;;
4078;SDS011;2054;47.858;11.156;2022-11-14T10:41:39;4.03;;;3.28;;
4078;SDS011;2054;47.858;11.156;2022-11-14T10:44:07;3.30;;;3.00;;
4078;SDS011;2054;47.858;11.156;2022-11-14T10:46:36;4.63;;;3.13;;
4078;SDS011;2054;47.858;11.156;2022-11-14T10:49:12;3.92;;;3.10;;
4078;SDS011;2054;47.858;11.156;2022-11-14T10:51:42;3.38;;;2.50;;
4078;SDS011;2054;47.858;11.156;2022-11-14T10:54:11;3.25;;;2.60;;
4078;SDS011;2054;47.858;11.156;2022-11-14T10:56:44;2.40;;;2.20;;
4078;SDS011;2054;47.858;11.156;2022-11-14T10:59:12;2.30;;;2.10;;
4078;SDS011;2054;47.858;11.156;2022-11-14T11:01:40;2.10;;;1.88;;
4078;SDS011;2054;47.858;11.156;2022-11-14T11:04:13;4.55;;;2.58;;
4078;SDS011;2054;47.858;11.156;2022-11-14T11:06:41;3.55;;;2.35;;
4078;SDS011;2054;47.858;11.156;2022-11-14T11:09:10;2.97;;;2.67;;
4078;SDS011;2054;47.858;11.156;2022-11-14T11:11:57;2.80;;;2.50;;
4078;SDS011;2054;47.858;11.156;2022-11-14T11:14:25;4.70;;;3.10;;
4078;SDS011;2054;47.858;11.156;2022-11-14T11:17:06;5.38;;;3.10;;
4078;SDS011;2054;47.858;11.156;2022-11-14T11:19:35;3.67;;;3.17;;
4078;SDS011;2054;47.858;11.156;2022-11-14T11:22:02;4.18;;;3.33;;
4078;SDS011;2054;47.858;11.156;2022-11-14T11:24:30;3.35;;;2.83;;
4078;SDS011;2054;47.858;11.156;2022-11-14T11:27:11;3.28;;;2.85;;
4078;SDS011;2054;47.858;11.156;2022-11-14T11:29:38;3.08;;;2.72;;
4078;SDS011;2054;47.858;11.156;2022-11-14T11:32:06;2.97;;;2.58;;
4078;SDS011;2054;47.858;11.156;2022-11-14T11:34:35;3.55;;;2.55;;
4078;SDS011;2054;47.858;11.156;2022-11-14T11:37:03;2.72;;;2.53;;
4078;SDS011;2054;47.858;11.156;2022-11-14T11:39:32;3.75;;;2.58;;
4078;SDS011;2054;47.858;11.156;2022-11-14T11:42:03;3.50;;;2.60;;
4078;SDS011;2054;47.858;11.156;2022-11-14T11:44:34;3.17;;;2.80;;
4078;SDS011;2054;47.858;11.156;2022-11-14T11:47:02;2.45;;;2.25;;
4078;SDS011;2054;47.858;11.156;2022-11-14T11:49:34;4.30;;;2.67;;
4078;SDS011;2054;47.858;11.156;2022-11-14T11:52:03;3.08;;;2.53;;
4078;SDS011;2054;47.858;11.156;2022-11-14T11:54:32;3.60;;;2.83;;
4078;SDS011;2054;47.858;11.156;2022-11-14T11:57:08;3.13;;;2.78;;
4078;SDS011;2054;47.858;11.156;2022-11-14T11:59:39;5.07;;;2.63;;
4078;SDS011;2054;47.858;11.156;2022-11-14T12:02:13;3.17;;;2.65;;
4078;SDS011;2054;47.858;11.156;2022-11-14T12:04:42;3.05;;;2.67;;
4078;SDS011;2054;47.858;11.156;2022-11-14T12:07:11;2.97;;;2.67;;
4078;SDS011;2054;47.858;11.156;2022-11-14T12:09:40;6.45;;;2.70;;
4078;SDS011;2054;47.858;11.156;2022-11-14T12:12:09;3.00;;;2.50;;
4078;SDS011;2054;47.858;11.156;2022-11-14T12:14:46;2.97;;;2.50;;
4078;SDS011;2054;47.858;11.156;2022-11-14T12:20:13;4.85;;;2.88;;
4078;SDS011;2054;47.858;11.156;2022-11-14T12:22:52;3.30;;;2.47;;
4078;SDS011;2054;47.858;11.156;2022-11-14T12:25:33;3.33;;;2.58;;
4078;SDS011;2054;47.858;11.156;2022-11-14T12:28:10;2.65;;;2.45;;
4078;SDS011;2054;47.858;11.156;2022-11-14T12:30:39;2.95;;;2.50;;
4078;SDS011;2054;47.858;11.156;2022-11-14T12:33:07;3.03;;;2.38;;
4078;SDS011;2054;47.858;11.156;2022-11-14T12:35:35;3.28;;;2.33;;
4078;SDS011;2054;47.858;11.156;2022-11-14T12:38:11;3.75;;;2.63;;
4078;SDS011;2054;47.858;11.156;2022-11-14T12:40:40;3.60;;;2.42;;
4078;SDS011;2054;47.858;11.156;2022-11-14T12:43:23;3.42;;;2.20;;
4078;SDS011;2054;47.858;11.156;2022-11-14T12:45:54;3.17;;;2.63;;
4078;SDS011;2054;47.858;11.156;2022-11-14T12:48:28;2.33;;;2.13;;
4078;SDS011;2054;47.858;11.156;2022-11-14T12:50:56;2.50;;;2.05;;
4078;SDS011;2054;47.858;11.156;2022-11-14T12:53:38;2.72;;;2.13;;
4078;SDS011;2054;47.858;11.156;2022-11-14T13:01:47;2.92;;;2.30;;
4078;SDS011;2054;47.858;11.156;2022-11-14T13:04:17;2.58;;;2.38;;
4078;SDS011;2054;47.858;11.156;2022-11-14T13:06:51;2.75;;;2.35;;
4078;SDS011;2054;47.858;11.156;2022-11-14T13:09:32;5.35;;;2.53;;
4078;SDS011;2054;47.858;11.156;2022-11-14T13:14:59;3.85;;;2.47;;
4078;SDS011;2054;47.858;11.156;2022-11-14T13:18:02;4.18;;;2.58;;
4078;SDS011;2054;47.858;11.156;2022-11-14T13:20:59;5.25;;;2.55;;
4078;SDS011;2054;47.858;11.156;2022-11-14T13:23:54;3.63;;;2.30;;
4078;SDS011;2054;47.858;11.156;2022-11-14T13:26:39;4.47;;;2.60;;
4078;SDS011;2054;47.858;11.156;2022-11-14T13:29:06;2.70;;;2.10;;
4078;SDS011;2054;47.858;11.156;2022-11-14T13:31:44;3.92;;;2.50;;
4078;SDS011;2054;47.858;11.156;2022-11-14T13:34:28;6.43;;;2.65;;
4078;SDS011;2054;47.858;11.156;2022-11-14T13:37:00;4.00;;;2.40;;
4078;SDS011;2054;47.858;11.156;2022-11-14T13:39:33;3.67;;;2.85;;
4078;SDS011;2054;47.858;11.156;2022-11-14T13:42:08;4.47;;;2.97;;
4078;SDS011;2054;47.858;11.156;2022-11-14T13:44:47;2.70;;;2.28;;
4078;SDS011;2054;47.858;11.156;2022-11-14T13:47:33;5.15;;;2.33;;
4078;SDS011;2054;47.858;11.156;2022-11-14T13:50:03;2.92;;;2.50;;
4078;SDS011;2054;47.858;11.156;2022-11-14T13:52:32;3.08;;;2.65;;
4078;SDS011;2054;47.858;11.156;2022-11-14T13:54:59;2.80;;;2.40;;
4078;SDS011;2054;47.858;11.156;2022-11-14T13:57:31;3.05;;;2.63;;
4078;SDS011;2054;47.858;11.156;2022-11-14T14:00:04;3.65;;;2.65;;
4078;SDS011;2054;47.858;11.156;2022-11-14T14:02:35;3.50;;;2.45;;
4078;SDS011;2054;47.858;11.156;2022-11-14T14:05:09;4.97;;;2.85;;
4078;SDS011;2054;47.858;11.156;2022-11-14T14:07:43;3.53;;;2.70;;
4078;SDS011;2054;47.858;11.156;2022-11-14T14:10:18;6.20;;;4.55;;
4078;SDS011;2054;47.858;11.156;2022-11-14T14:12:53;7.13;;;4.40;;
4078;SDS011;2054;47.858;11.156;2022-11-14T14:15:26;8.35;;;4.88;;
4078;SDS011;2054;47.858;11.156;2022-11-14T14:17:57;7.50;;;4.72;;
4078;SDS011;2054;47.858;11.156;2022-11-14T14:20:32;8.23;;;5.90;;
4078;SDS011;2054;47.858;11.156;2022-11-14T14:23:00;6.22;;;4.82;;
4078;SDS011;2054;47.858;11.156;2022-11-14T14:25:30;5.70;;;3.03;;
4078;SDS011;2054;47.858;11.156;2022-11-14T14:28:04;4.78;;;2.80;;
4078;SDS011;2054;47.858;11.156;2022-11-14T14:30:35;4.15;;;2.80;;
4078;SDS011;2054;47.858;11.156;2022-11-14T14:33:03;3.85;;;2.45;;
4078;SDS011;2054;47.858;11.156;2022-11-14T14:35:35;3.42;;;2.50;;
4078;SDS011;2054;47.858;11.156;2022-11-14T14:38:04;3.53;;;2.78;;
4078;SDS011;2054;47.858;11.156;2022-11-14T14:40:36;2.60;;;2.28;;
4078;SDS011;2054;47.858;11.156;2022-11-14T14:43:06;2.95;;;2.40;;
4078;SDS011;2054;47.858;11.156;2022-11-14T14:45:35;2.80;;;2.50;;
4078;SDS011;2054;47.858;11.156;2022-11-14T14:48:05;3.13;;;2.38;;
4078;SDS011;2054;47.858;11.156;2022-11-14T14:50:33;3.03;;;2.00;;
4078;SDS011;2054;47.858;11.156;2022-11-14T14:53:02;2.20;;;1.70;;
4078;SDS011;2054;47.858;11.156;2022-11-14T14:55:30;2.08;;;1.70;;
4078;SDS011;2054;47.858;11.156;2022-11-14T14:58:12;3.58;;;1.70;;
4078;SDS011;2054;47.858;11.156;2022-11-14T15:00:42;2.97;;;2.05;;
4078;SDS011;2054;47.858;11.156;2022-11-14T15:03:16;6.75;;;2.17;;
4078;SDS011;2054;47.858;11.156;2022-11-14T15:05:43;2.47;;;2.00;;
4078;SDS011;2054;47.858;11.156;2022-11-14T15:08:11;2.10;;;1.90;;
4078;SDS011;2054;47.858;11.156;2022-11-14T15:10:39;2.15;;;1.80;;
4078;SDS011;2054;47.858;11.156;2022-11-14T15:13:07;4.05;;;2.03;;
4078;SDS011;2054;47.858;11.156;2022-11-14T15:15:37;3.00;;;1.77;;
4078;SDS011;2054;47.858;11.156;2022-11-14T15:18:06;2.20;;;1.98;;
4078;SDS011;2054;47.858;11.156;2022-11-14T15:20:34;3.40;;;2.22;;
4078;SDS011;2054;47.858;11.156;2022-11-14T15:23:02;2.38;;;2.00;;
4078;SDS011;2054;47.858;11.156;2022-11-14T15:25:29;2.78;;;1.90;;
4078;SDS011;2054;47.858;11.156;2022-11-14T15:27:57;3.28;;;2.20;;
4078;SDS011;2054;47.858;11.156;2022-11-14T15:30:25;2.22;;;1.80;;
4078;SDS011;2054;47.858;11.156;2022-11-14T15:32:56;2.47;;;1.90;;
4078;SDS011;2054;47.858;11.156;2022-11-14T15:35:29;2.40;;;1.92;;
4078;SDS011;2054;47.858;11.156;2022-11-14T15:38:06;2.25;;;1.92;;
4078;SDS011;2054;47.858;11.156;2022-11-14T15:40:33;3.10;;;2.50;;
4078;SDS011;2054;47.858;11.156;2022-11-14T15:45:44;3.05;;;2.05;;
4078;SDS011;2054;47.858;11.156;2022-11-14T15:48:13;4.07;;;2.15;;
4078;SDS011;2054;47.858;11.156;2022-11-14T15:50:41;5.60;;;2.53;;
4078;SDS011;2054;47.858;11.156;2022-11-14T15:53:15;3.70;;;2.05;;
4078;SDS011;2054;47.858;11.156;2022-11-14T15:55:43;2.25;;;1.85;;
4078;SDS011;2054;47.858;11.156;2022-11-14T15:58:10;4.63;;;1.98;;
4078;SDS011;2054;47.858;11.156;2022-11-14T16:00:39;3.00;;;2.10;;
4078;SDS011;2054;47.858;11.156;2022-11-14T16:03:09;2.70;;;1.92;;
4078;SDS011;2054;47.858;11.156;2022-11-14T16:05:39;2.97;;;2.47;;
4078;SDS011;2054;47.858;11.156;2022-11-14T16:08:07;2.75;;;1.98;;
4078;SDS011;2054;47.858;11.156;2022-11-14T16:10:35;3.17;;;2.45;;
4078;SDS011;2054;47.858;11.156;2022-11-14T16:13:02;6.97;;;3.15;;
4078;SDS011;2054;47.858;11.156;2022-11-14T16:15:29;8.02;;;3.72;;
4078;SDS011;2054;47.858;11.156;2022-11-14T16:17:56;6.53;;;3.33;;
4078;SDS011;2054;47.858;11.156;2022-11-14T16:20:24;7.60;;;3.17;;
4078;SDS011;2054;47.858;11.156;2022-11-14T16:22:53;9.05;;;3.10;;
4078;SDS011;2054;47.858;11.156;2022-11-14T16:25:21;4.63;;;3.15;;
4078;SDS011;2054;47.858;11.156;2022-11-14T16:27:49;5.35;;;3.08;;
4078;SDS011;2054;47.858;11.156;2022-11-14T16:30:17;4.68;;;2.80;;
4078;SDS011;2054;47.858;11.156;2022-11-14T16:32:45;4.93;;;2.58;;
4078;SDS011;2054;47.858;11.156;2022-11-14T16:35:13;5.43;;;3.60;;
4078;SDS011;2054;47.858;11.156;2022-11-14T16:37:40;6.88;;;4.28;;
4078;SDS011;2054;47.858;11.156;2022-11-14T16:40:10;8.55;;;4.28;;
4078;SDS011;2054;47.858;11.156;2022-11-14T16:42:39;16.52;;;9.90;;
4078;SDS011;2054;47.858;11.156;2022-11-14T16:45:06;9.15;;;5.85;;
4078;SDS011;2054;47.858;11.156;2022-11-14T16:47:33;13.88;;;7.38;;
4078;SDS011;2054;47.858;11.156;2022-11-14T16:50:00;14.27;;;8.30;;
4078;SDS011;2054;47.858;11.156;2022-11-14T16:52:28;10.05;;;6.25;;
4078;SDS011;2054;47.858;11.156;2022-11-14T16:54:55;8.50;;;5.75;;
4078;SDS011;2054;47.858;11.156;2022-11-14T16:57:23;11.65;;;6.75;;
4078;SDS011;2054;47.858;11.156;2022-11-14T16:59:51;11.15;;;7.75;;
4078;SDS011;2054;47.858;11.156;2022-11-14T17:02:18;11.60;;;6.60;;
4078;SDS011;2054;47.858;11.156;2022-11-14T17:04:45;11.43;;;6.68;;
4078;SDS011;2054;47.858;11.156;2022-11-14T17:07:12;19.20;;;9.30;;
4078;SDS011;2054;47.858;11.156;2022-11-14T17:09:40;101.55;;;43.75;;
4078;SDS011;2054;47.858;11.156;2022-11-14T17:12:07;72.75;;;33.30;;
4078;SDS011;2054;47.858;11.156;2022-11-14T17:14:35;40.55;;;17.48;;
4078;SDS011;2054;47.858;11.156;2022-11-14T17:17:02;20.45;;;10.93;;
4078;SDS011;2054;47.858;11.156;2022-11-14T17:19:30;13.60;;;6.53;;
4078;SDS011;2054;47.858;11.156;2022-11-14T17:21:57;10.98;;;6.28;;
4078;SDS011;2054;47.858;11.156;2022-11-14T17:24:24;10.40;;;6.50;;
4078;SDS011;2054;47.858;11.156;2022-11-14T17:26:52;11.80;;;6.60;;
4078;SDS011;2054;47.858;11.156;2022-11-14T17:29:19;12.63;;;6.60;;
4078;SDS011;2054;47.858;11.156;2022-11-14T17:31:47;9.77;;;5.63;;
4078;SDS011;2054;47.858;11.156;2022-11-14T17:34:15;11.27;;;5.18;;
4078;SDS011;2054;47.858;11.156;2022-11-14T17:36:42;7.88;;;4.93;;
4078;SDS011;2054;47.858;11.156;2022-11-14T17:39:10;6.95;;;4.63;;
4078;SDS011;2054;47.858;11.156;2022-11-14T17:41:37;8.38;;;4.53;;
4078;SDS011;2054;47.858;11.156;2022-11-14T17:44:04;10.50;;;5.38;;
4078;SDS011;2054;47.858;11.156;2022-11-14T17:46:33;10.63;;;5.07;;
4078;SDS011;2054;47.858;11.156;2022-11-14T17:49:02;11.35;;;4.95;;
4078;SDS011;2054;47.858;11.156;2022-11-14T17:51:29;6.90;;;4.72;;
4078;SDS011;2054;47.858;11.156;2022-11-14T17:53:56;8.02;;;4.95;;
4078;SDS011;2054;47.858;11.156;2022-11-14T17:56:24;9.82;;;4.68;;
4078;SDS011;2054;47.858;11.156;2022-11-14T17:58:52;7.43;;;4.35;;
4078;SDS011;2054;47.858;11.156;2022-11-14T18:01:20;26.23;;;12.50;;
4078;SDS011;2054;47.858;11.156;2022-11-14T18:03:47;30.00;;;13.90;;
4078;SDS011;2054;47.858;11.156;2022-11-14T18:06:16;23.63;;;12.13;;
4078;SDS011;2054;47.858;11.156;2022-11-14T18:08:44;7.65;;;4.93;;
4078;SDS011;2054;47.858;11.156;2022-11-14T18:11:12;9.77;;;4.00;;
4078;SDS011;2054;47.858;11.156;2022-11-14T18:13:40;7.38;;;4.82;;
4078;SDS011;2054;47.858;11.156;2022-11-14T18:16:09;7.38;;;4.72;;
4078;SDS011;2054;47.858;11.156;2022-11-14T18:18:36;7.95;;;4.50;;
4078;SDS011;2054;47.858;11.156;2022-11-14T18:21:07;7.15;;;4.53;;
4078;SDS011;2054;47.858;11.156;2022-11-14T18:23:35;8.00;;;4.35;;
4078;SDS011;2054;47.858;11.156;2022-11-14T18:26:07;7.18;;;4.72;;
4078;SDS011;2054;47.858;11.156;2022-11-14T18:28:34;8.88;;;5.07;;
4078;SDS011;2054;47.858;11.156;2022-11-14T18:31:01;6.88;;;4.25;;
4078;SDS011;2054;47.858;11.156;2022-11-14T18:33:31;6.35;;;4.60;;
4078;SDS011;2054;47.858;11.156;2022-11-14T18:36:00;6.57;;;4.68;;
4078;SDS011;2054;47.858;11.156;2022-11-14T18:38:28;5.22;;;4.00;;
4078;SDS011;2054;47.858;11.156;2022-11-14T18:40:58;6.55;;;4.20;;
4078;SDS011;2054;47.858;11.156;2022-11-14T18:43:25;6.55;;;4.28;;
4078;SDS011;2054;47.858;11.156;2022-11-14T18:46:02;6.22;;;4.05;;
4078;SDS011;2054;47.858;11.156;2022-11-14T18:48:29;6.93;;;4.35;;
4078;SDS011;2054;47.858;11.156;2022-11-14T18:50:58;8.13;;;4.00;;
4078;SDS011;2054;47.858;11.156;2022-11-14T18:53:28;6.95;;;4.13;;
4078;SDS011;2054;47.858;11.156;2022-11-14T18:55:55;4.00;;;3.28;;
4078;SDS011;2054;47.858;11.156;2022-11-14T18:58:25;7.10;;;3.88;;
4078;SDS011;2054;47.858;11.156;2022-11-14T19:00:52;7.75;;;3.80;;
4078;SDS011;2054;47.858;11.156;2022-11-14T19:03:19;10.70;;;4.47;;
4078;SDS011;2054;47.858;11.156;2022-11-14T19:05:46;5.97;;;4.03;;
4078;SDS011;2054;47.858;11.156;2022-11-14T19:08:16;6.95;;;4.43;;
4078;SDS011;2054;47.858;11.156;2022-11-14T19:10:43;6.72;;;4.53;;
4078;SDS011;2054;47.858;11.156;2022-11-14T19:13:10;8.80;;;4.80;;